Time;durP1;ratioP1;P1;durP2;ratioP2;P2;SDS_P1;SDS_P2;PMS_P1;PMS_P2;Temp;Humidity;BMP_temperature;BMP_pressure;BME280_temperature;BME280_humidity;BME280_pressure;Samples;Min_cycle;Max_cycle;Signal;HPM_P1;HPM_P2
2022/10/28 00:00:45;;;;;;;5.90;2.95;;;;;;;14.34;100.00;101332.28;5044249;28;20715;-79
2022/10/28 00:03:32;;;;;;;5.60;2.67;;;;;;;14.36;100.00;101330.47;5044936;28;20041;-77
2022/10/28 00:06:27;;;;;;;7.72;2.92;;;;;;;14.41;100.00;101343.59;5039218;28;20093;-79
2022/10/28 00:09:14;;;;;;;2.90;2.25;;;;;;;14.46;100.00;101368.09;5051676;28;20040;-78
2022/10/28 00:12:00;;;;;;;3.88;2.42;;;;;;;14.55;100.00;101364.47;5040659;28;20146;-79
2022/10/28 00:14:47;;;;;;;5.85;3.17;;;;;;;14.64;100.00;101345.94;5052437;28;20069;-77
2022/10/28 00:17:34;;;;;;;4.60;3.58;;;;;;;14.75;100.00;101345.75;5040500;28;20067;-78
2022/10/28 00:20:21;;;;;;;5.97;3.13;;;;;;;14.88;100.00;101351.72;5045439;28;20049;-78
2022/10/28 00:23:08;;;;;;;3.53;2.97;;;;;;;14.97;100.00;101354.22;5062649;28;20048;-76
2022/10/28 00:25:55;;;;;;;8.50;3.97;;;;;;;15.03;100.00;101354.13;5049506;28;20388;-76
2022/10/28 00:29:04;;;;;;;4.25;3.17;;;;;;;15.12;100.00;101361.00;5068913;28;20550;-76
2022/10/28 00:31:51;;;;;;;6.53;3.13;;;;;;;15.15;100.00;101370.63;5063468;28;20070;-75
2022/10/28 00:34:38;;;;;;;5.68;3.83;;;;;;;15.14;100.00;101377.66;5051448;28;20044;-76
2022/10/28 00:37:25;;;;;;;5.82;3.85;;;;;;;15.15;100.00;101376.78;5050889;28;20044;-78
2022/10/28 00:40:12;;;;;;;5.10;2.88;;;;;;;15.17;100.00;101388.16;5046798;28;20056;-79
2022/10/28 00:42:58;;;;;;;5.47;3.30;;;;;;;15.16;100.00;101390.81;5042187;28;20194;-78
2022/10/28 00:45:45;;;;;;;5.63;2.85;;;;;;;15.16;100.00;101404.00;5043815;28;20387;-76
2022/10/28 00:48:32;;;;;;;5.63;2.88;;;;;;;15.14;100.00;101398.75;5043058;28;20039;-78
2022/10/28 00:51:22;;;;;;;4.10;2.88;;;;;;;15.12;100.00;101391.78;5049585;28;20113;-77
2022/10/28 00:54:10;;;;;;;5.45;3.10;;;;;;;15.12;100.00;101390.03;5047621;28;20051;-77
2022/10/28 00:57:02;;;;;;;6.82;2.95;;;;;;;15.16;100.00;101385.53;5044120;28;20056;-78
2022/10/28 00:59:51;;;;;;;6.00;2.20;;;;;;;15.17;100.00;101382.00;5055825;28;20052;-75
2022/10/28 01:02:46;;;;;;;5.13;2.63;;;;;;;15.22;100.00;101370.47;5043793;28;20044;-79
2022/10/28 01:05:37;;;;;;;3.35;2.38;;;;;;;15.30;100.00;101374.78;5049649;28;20036;-79
2022/10/28 01:08:24;;;;;;;3.17;2.35;;;;;;;15.31;100.00;101366.81;5042273;28;20130;-79
2022/10/28 01:11:41;;;;;;;5.75;3.60;;;;;;;15.31;100.00;101368.59;5052256;28;20033;-76
2022/10/28 01:14:56;;;;;;;4.93;2.88;;;;;;;15.29;100.00;101366.00;5053641;28;20052;-78
2022/10/28 01:18:30;;;;;;;3.47;2.47;;;;;;;15.22;100.00;101359.94;5063681;28;20047;-78
2022/10/28 01:21:51;;;;;;;4.00;2.40;;;;;;;15.14;100.00;101361.84;5059043;28;20050;-79
2022/10/28 01:25:05;;;;;;;5.65;3.85;;;;;;;15.12;100.00;101357.47;5045581;28;20048;-79
2022/10/28 01:28:07;;;;;;;3.40;2.40;;;;;;;15.13;100.00;101354.81;5058889;28;20033;-78
2022/10/28 01:31:21;;;;;;;4.68;2.63;;;;;;;15.20;100.00;101338.00;5057195;28;20495;-78
2022/10/28 01:34:46;;;;;;;11.02;3.75;;;;;;;15.26;100.00;101331.75;5046386;28;20055;-79
2022/10/28 01:37:37;;;;;;;;;;;;;;;15.30;100.00;101337.84;5055341;28;20041;-78
2022/10/28 01:41:15;;;;;;;7.78;3.50;;;;;;;15.27;100.00;101343.19;5059343;28;19928;-76
2022/10/28 01:44:18;;;;;;;9.68;3.28;;;;;;;15.23;100.00;101321.25;5032158;28;20048;-80
2022/10/28 01:47:26;;;;;;;8.88;3.67;;;;;;;15.22;100.00;101307.19;5050074;28;20037;-80
2022/10/28 01:50:32;;;;;;;5.63;2.75;;;;;;;15.15;100.00;101308.22;5052623;28;20037;-76
2022/10/28 01:53:27;;;;;;;11.10;3.25;;;;;;;15.06;100.00;101318.91;5038466;28;20044;-76
2022/10/28 01:56:19;;;;;;;4.30;2.80;;;;;;;14.96;100.00;101330.50;5054109;28;20049;-76
2022/10/28 01:59:14;;;;;;;6.05;2.97;;;;;;;14.81;100.00;101329.88;5046586;28;20056;-76
2022/10/28 02:02:01;;;;;;;14.50;3.15;;;;;;;14.78;100.00;101327.25;5039673;28;20040;-79
2022/10/28 02:04:48;;;;;;;8.43;3.30;;;;;;;14.79;100.00;101315.81;5053643;28;20045;-77
2022/10/28 02:07:35;;;;;;;8.20;2.90;;;;;;;14.82;100.00;101315.78;5060422;28;20062;-76
2022/10/28 02:10:32;;;;;;;9.00;2.90;;;;;;;14.81;100.00;101308.78;5046059;28;20953;-81
2022/10/28 02:13:29;;;;;;;4.53;2.80;;;;;;;14.84;100.00;101305.22;5054852;28;20052;-78
2022/10/28 02:16:47;;;;;;;9.05;3.53;;;;;;;14.90;100.00;101294.59;5050978;28;20044;-76
2022/10/28 02:20:01;;;;;;;15.07;3.95;;;;;;;14.94;100.00;101298.91;5038491;28;20491;-78
2022/10/28 02:22:55;;;;;;;5.45;3.22;;;;;;;14.92;100.00;101284.88;5048887;28;20877;-81
2022/10/28 02:26:01;;;;;;;9.80;2.65;;;;;;;14.92;100.00;101284.88;5034413;28;20057;-79
2022/10/28 02:29:05;;;;;;;7.03;3.00;;;;;;;14.98;100.00;101286.53;5023885;28;20048;-78
2022/10/28 02:32:08;;;;;;;4.60;2.90;;;;;;;15.02;100.00;101280.31;5021187;28;20060;-80
2022/10/28 02:34:58;;;;;;;4.78;3.20;;;;;;;15.07;100.00;101275.84;5034225;28;20593;-78
2022/10/28 02:37:48;;;;;;;4.57;2.55;;;;;;;15.11;100.00;101277.53;5029832;28;20036;-78
2022/10/28 02:40:38;;;;;;;2.72;2.50;;;;;;;15.14;100.00;101273.97;5038438;28;20055;-77
2022/10/28 02:43:26;;;;;;;7.43;3.53;;;;;;;15.13;100.00;101280.97;5021764;28;20049;-79
2022/10/28 02:46:16;;;;;;;5.97;2.67;;;;;;;15.07;100.00;101273.19;5024655;28;20503;-78
2022/10/28 02:49:07;;;;;;;8.18;3.15;;;;;;;15.00;100.00;101271.56;5024024;28;20191;-77
2022/10/28 02:52:02;;;;;;;5.43;2.53;;;;;;;14.96;100.00;101269.88;5032088;28;20045;-77
2022/10/28 02:54:57;;;;;;;8.90;3.28;;;;;;;14.95;100.00;101271.63;5014418;28;20040;-76
2022/10/28 02:57:47;;;;;;;5.35;2.92;;;;;;;14.93;100.00;101272.53;5020087;28;20664;-75
2022/10/28 03:00:34;;;;;;;5.95;2.83;;;;;;;14.88;100.00;101276.13;5035921;28;20143;-77
2022/10/28 03:03:20;;;;;;;10.70;3.95;;;;;;;14.85;100.00;101264.78;5032965;28;20651;-80
2022/10/28 03:06:08;;;;;;;4.93;3.00;;;;;;;14.86;100.00;101256.84;5042473;28;20041;-78
2022/10/28 03:08:55;;;;;;;11.32;3.67;;;;;;;14.83;100.00;101254.25;5027969;28;20044;-76
2022/10/28 03:11:42;;;;;;;6.78;3.28;;;;;;;14.81;100.00;101253.44;5037534;28;20742;-77
2022/10/28 03:14:29;;;;;;;5.22;2.70;;;;;;;14.75;100.00;101250.88;5016568;28;20057;-77
2022/10/28 03:17:15;;;;;;;6.30;3.30;;;;;;;14.74;100.00;101235.09;5038638;28;20048;-78
2022/10/28 03:20:02;;;;;;;14.30;3.35;;;;;;;14.78;100.00;101249.97;5034196;28;20507;-81
2022/10/28 03:22:49;;;;;;;4.03;2.42;;;;;;;14.71;100.00;101255.34;5032413;28;20060;-76
2022/10/28 03:25:36;;;;;;;6.65;2.80;;;;;;;14.63;100.00;101245.81;5037384;28;20623;-78
2022/10/28 03:28:22;;;;;;;5.50;2.90;;;;;;;14.54;100.00;101246.81;5041730;28;20060;-76
2022/10/28 03:31:10;;;;;;;3.33;3.03;;;;;;;14.49;100.00;101243.38;5039261;28;20048;-77
2022/10/28 03:33:57;;;;;;;4.88;3.05;;;;;;;14.45;100.00;101250.44;5030561;28;20045;-78
2022/10/28 03:36:44;;;;;;;5.90;3.83;;;;;;;14.45;100.00;101244.31;5030668;28;20048;-78
2022/10/28 03:39:31;;;;;;;5.45;3.45;;;;;;;14.42;100.00;101236.44;5029877;28;20546;-77
2022/10/28 03:42:18;;;;;;;6.72;3.42;;;;;;;14.40;100.00;101241.75;5014753;28;20049;-77
2022/10/28 03:45:05;;;;;;;7.10;3.35;;;;;;;14.35;100.00;101244.47;5024618;28;20049;-77
2022/10/28 03:47:52;;;;;;;6.97;3.13;;;;;;;14.33;100.00;101242.75;5033209;28;20059;-79
2022/10/28 03:50:39;;;;;;;2.88;2.58;;;;;;;14.36;100.00;101234.78;5033927;28;20045;-77
2022/10/28 03:53:26;;;;;;;8.90;4.15;;;;;;;14.43;100.00;101238.19;5036026;28;20048;-75
2022/10/28 03:56:13;;;;;;;8.30;3.38;;;;;;;14.52;100.00;101231.03;5025176;28;20049;-75
2022/10/28 03:58:59;;;;;;;4.35;3.28;;;;;;;14.60;100.00;101240.56;5044676;28;20038;-76
2022/10/28 04:01:46;;;;;;;2.83;2.30;;;;;;;14.69;100.00;101243.06;5025393;28;20033;-76
2022/10/28 04:04:33;;;;;;;5.32;3.75;;;;;;;14.72;100.00;101230.72;5031595;28;20392;-77
2022/10/28 04:07:20;;;;;;;6.90;3.28;;;;;;;14.75;100.00;101224.53;5013250;28;20511;-77
2022/10/28 04:10:07;;;;;;;9.55;3.70;;;;;;;14.80;100.00;101232.38;5021647;28;20048;-78
2022/10/28 04:12:59;;;;;;;7.82;2.92;;;;;;;14.76;100.00;101225.38;5032046;28;20041;-81
2022/10/28 04:15:46;;;;;;;5.80;2.60;;;;;;;14.69;100.00;101222.00;5015098;28;20524;-79
2022/10/28 04:18:34;;;;;;;6.43;3.08;;;;;;;14.64;100.00;101222.09;5014373;28;20037;-78
2022/10/28 04:21:21;;;;;;;4.18;2.85;;;;;;;14.63;100.00;101207.13;5020666;28;20048;-80
2022/10/28 04:24:07;;;;;;;6.70;3.17;;;;;;;14.60;100.00;101207.19;5022854;28;20049;-76
2022/10/28 04:26:54;;;;;;;6.95;3.67;;;;;;;14.59;100.00;101215.09;5040718;28;20052;-77
2022/10/28 04:29:41;;;;;;;4.43;2.83;;;;;;;14.49;100.00;101210.00;5039481;28;20039;-77
2022/10/28 04:32:28;;;;;;;11.38;3.35;;;;;;;14.47;100.00;101205.63;5044729;28;20037;-81
2022/10/28 04:35:15;;;;;;;8.48;3.17;;;;;;;14.47;100.00;101203.00;5039223;28;20124;-79
2022/10/28 04:38:01;;;;;;;6.43;3.13;;;;;;;14.50;100.00;101202.97;5042439;28;20055;-81
2022/10/28 04:40:49;;;;;;;5.25;3.00;;;;;;;14.56;100.00;101200.22;5051903;28;20430;-78
2022/10/28 04:43:35;;;;;;;8.75;3.80;;;;;;;14.63;100.00;101207.13;5033877;28;20690;-80
2022/10/28 04:46:22;;;;;;;8.25;3.25;;;;;;;14.71;100.00;101205.25;5049852;28;20040;-79
2022/10/28 04:49:10;;;;;;;4.10;2.85;;;;;;;14.78;100.00;101205.16;5042139;28;20407;-77
2022/10/28 04:51:56;;;;;;;6.35;2.95;;;;;;;14.81;100.00;101198.06;5034974;28;20098;-77
2022/10/28 04:54:43;;;;;;;4.78;3.08;;;;;;;14.80;100.00;101198.97;5035796;28;20037;-76
2022/10/28 04:57:31;;;;;;;3.55;2.83;;;;;;;14.79;100.00;101191.94;5040795;28;20041;-77
2022/10/28 05:00:18;;;;;;;8.93;3.72;;;;;;;14.74;100.00;101179.75;5046653;28;20040;-78
2022/10/28 05:03:04;;;;;;;9.93;3.97;;;;;;;14.68;100.00;101173.69;5038030;28;20045;-81
2022/10/28 05:05:51;;;;;;;11.80;3.70;;;;;;;14.61;100.00;101173.81;5042457;28;20056;-79
2022/10/28 05:08:38;;;;;;;11.48;2.83;;;;;;;14.51;100.00;101162.53;5045835;28;20041;-78
2022/10/28 05:11:25;;;;;;;4.68;3.50;;;;;;;14.41;100.00;101168.88;5039120;28;20040;-76
2022/10/28 05:14:12;;;;;;;8.50;3.97;;;;;;;14.40;100.00;101168.00;5044370;28;20052;-79
2022/10/28 05:16:58;;;;;;;6.43;3.28;;;;;;;14.33;100.00;101167.22;5049480;28;20041;-75
2022/10/28 05:19:45;;;;;;;7.18;4.47;;;;;;;14.25;100.00;101171.75;5050788;28;20076;-77
2022/10/28 05:22:32;;;;;;;7.53;4.82;;;;;;;14.14;100.00;101169.28;5041333;28;20040;-80
2022/10/28 05:25:20;;;;;;;7.78;4.18;;;;;;;14.06;100.00;101165.91;5048505;28;20052;-79
2022/10/28 05:28:07;;;;;;;2.85;2.50;;;;;;;13.97;100.00;101171.31;5044566;28;20358;-79
2022/10/28 05:30:54;;;;;;;5.43;2.50;;;;;;;13.88;100.00;101167.03;5043477;28;20045;-78
2022/10/28 05:33:40;;;;;;;5.63;2.83;;;;;;;13.91;100.00;101169.66;5043658;28;20056;-77
2022/10/28 05:36:27;;;;;;;6.97;3.78;;;;;;;13.91;100.00;101159.13;5051997;28;20071;-80
2022/10/28 05:39:14;;;;;;;7.32;2.70;;;;;;;13.97;100.00;101166.03;5042080;28;20048;-80
2022/10/28 05:42:01;;;;;;;7.40;3.40;;;;;;;13.97;100.00;101169.53;5052483;28;20045;-81
2022/10/28 05:44:47;;;;;;;7.63;4.30;;;;;;;13.96;100.00;101159.03;5051504;28;20519;-80
2022/10/28 05:47:34;;;;;;;8.18;5.03;;;;;;;14.01;100.00;101155.44;5044652;28;20033;-78
2022/10/28 05:50:22;;;;;;;10.10;3.58;;;;;;;14.05;100.00;101149.25;5040937;28;20052;-79
2022/10/28 05:53:09;;;;;;;6.85;3.58;;;;;;;14.06;100.00;101152.75;5041967;28;20091;-77
2022/10/28 05:55:56;;;;;;;11.23;3.78;;;;;;;14.07;100.00;101155.34;5054079;28;20513;-80
2022/10/28 05:58:42;;;;;;;10.07;3.67;;;;;;;14.08;100.00;101153.59;5043240;28;20033;-77
2022/10/28 06:01:29;;;;;;;5.88;4.22;;;;;;;14.11;100.00;101155.31;5043348;28;20044;-78
2022/10/28 06:04:16;;;;;;;10.43;5.80;;;;;;;14.19;100.00;101154.28;5043892;28;20047;-77
2022/10/28 06:07:03;;;;;;;8.57;3.33;;;;;;;14.32;100.00;101144.41;5051434;28;20144;-78
2022/10/28 06:09:51;;;;;;;7.32;3.97;;;;;;;14.41;100.00;101151.31;5045172;28;20036;-78
2022/10/28 06:12:38;;;;;;;16.50;5.22;;;;;;;14.48;100.00;101155.56;5049995;28;20560;-75
2022/10/28 06:15:28;;;;;;;5.32;3.25;;;;;;;14.52;100.00;101152.00;5042814;28;20089;-80
2022/10/28 06:18:15;;;;;;;7.25;3.15;;;;;;;14.51;100.00;101152.00;5050053;28;20044;-79
2022/10/28 06:21:01;;;;;;;7.05;3.78;;;;;;;14.45;100.00;101146.88;5040130;28;20153;-79
2022/10/28 06:23:48;;;;;;;7.80;4.47;;;;;;;14.44;100.00;101153.88;5036387;28;20045;-78
2022/10/28 06:26:35;;;;;;;6.20;3.35;;;;;;;14.45;100.00;101160.88;5047251;28;20123;-81
2022/10/28 06:29:22;;;;;;;10.48;2.83;;;;;;;14.53;100.00;101150.22;5050756;28;20040;-80
2022/10/28 06:32:10;;;;;;;8.10;3.72;;;;;;;14.60;100.00;101158.88;5048863;28;20128;-80
2022/10/28 06:34:57;;;;;;;6.88;2.95;;;;;;;14.69;100.00;101164.91;5057770;28;20132;-79
2022/10/28 06:37:44;;;;;;;14.90;5.15;;;;;;;14.75;100.00;101161.28;5041018;28;20856;-76
2022/10/28 06:40:30;;;;;;;6.78;3.45;;;;;;;14.88;100.00;101169.84;5042880;28;20059;-77
2022/10/28 06:43:17;;;;;;;5.95;3.97;;;;;;;15.01;100.00;101173.97;5040606;28;20049;-80
2022/10/28 06:46:05;;;;;;;7.45;2.95;;;;;;;15.15;100.00;101176.34;5040827;28;20052;-82
2022/10/28 06:48:54;;;;;;;12.70;3.72;;;;;;;15.27;100.00;101180.50;5030980;28;20045;-79
2022/10/28 06:51:41;;;;;;;21.63;3.78;;;;;;;15.35;100.00;101189.13;5035573;28;20139;-78
2022/10/28 06:54:28;;;;;;;7.25;2.95;;;;;;;15.38;100.00;101194.38;5034409;28;20060;-78
2022/10/28 06:57:15;;;;;;;5.47;2.90;;;;;;;15.46;100.00;101191.56;5043197;28;20642;-81
2022/10/28 07:00:02;;;;;;;12.32;4.10;;;;;;;15.49;99.56;101191.50;5043353;28;20045;-83
2022/10/28 07:02:56;;;;;;;4.82;3.22;;;;;;;15.48;99.55;101192.38;5038867;28;20048;-81
2022/10/28 07:05:42;;;;;;;13.32;4.40;;;;;;;15.43;99.68;101190.75;5050057;28;20041;-78
2022/10/28 07:08:29;;;;;;;9.02;5.35;;;;;;;15.39;99.63;101192.56;5048654;28;20079;-78
2022/10/28 07:11:17;;;;;;;6.75;3.53;;;;;;;15.32;100.00;101197.13;5038123;28;20836;-81
2022/10/28 07:14:04;;;;;;;6.97;2.95;;;;;;;15.25;100.00;101197.25;5035276;28;20814;-82
2022/10/28 07:16:51;;;;;;;7.50;3.05;;;;;;;15.19;100.00;101211.44;5039751;28;20040;-78
2022/10/28 07:19:38;;;;;;;8.32;3.80;;;;;;;15.14;100.00;101211.53;5054418;28;20048;-76
2022/10/28 07:22:25;;;;;;;11.18;3.30;;;;;;;15.12;100.00;101221.25;5053339;28;20049;-77
2022/10/28 07:25:11;;;;;;;6.63;2.78;;;;;;;15.15;100.00;101217.69;5048858;28;20455;-78
2022/10/28 07:27:59;;;;;;;28.17;5.60;;;;;;;15.19;100.00;101211.44;5041225;28;20411;-75
2022/10/28 07:30:46;;;;;;;6.57;3.25;;;;;;;15.25;100.00;101200.75;5035808;28;20598;-80
2022/10/28 07:33:33;;;;;;;9.35;3.17;;;;;;;15.32;100.00;101199.75;5044679;28;20040;-79
2022/10/28 07:36:20;;;;;;;18.33;4.53;;;;;;;15.43;99.95;101196.88;5051238;28;20048;-80
2022/10/28 07:39:07;;;;;;;10.98;3.45;;;;;;;15.51;99.25;101199.38;5043079;28;20846;-79
2022/10/28 07:41:54;;;;;;;6.65;3.20;;;;;;;15.61;98.40;101194.78;5037528;28;20045;-78
2022/10/28 07:44:40;;;;;;;5.95;2.92;;;;;;;15.73;97.42;101191.00;5038949;28;20734;-80
2022/10/28 07:47:27;;;;;;;7.35;2.75;;;;;;;15.85;96.32;101193.41;5049911;28;20171;-79
2022/10/28 07:50:18;;;;;;;8.82;2.90;;;;;;;15.91;95.91;101202.97;5043650;28;20744;-78
2022/10/28 07:53:05;;;;;;;11.93;2.80;;;;;;;16.01;95.33;101215.06;5041078;28;20045;-77
2022/10/28 07:56:01;;;;;;;6.07;3.60;;;;;;;16.12;94.59;101209.53;5036149;28;20412;-77
2022/10/28 07:58:48;;;;;;;6.78;2.85;;;;;;;16.21;94.17;101211.94;5040926;28;20037;-82
2022/10/28 08:01:35;;;;;;;17.73;3.22;;;;;;;16.44;91.94;101211.41;5039186;28;20040;-78
2022/10/28 08:04:22;;;;;;;6.88;3.38;;;;;;;16.70;90.11;101213.38;5036697;28;20053;-77
2022/10/28 08:07:09;;;;;;;8.23;2.92;;;;;;;16.85;89.01;101213.91;5050485;28;20052;-78
2022/10/28 08:09:56;;;;;;;5.57;2.53;;;;;;;16.97;88.81;101220.66;5039042;28;20037;-76
2022/10/28 08:12:45;;;;;;;7.60;3.05;;;;;;;17.14;87.61;101209.63;5045954;28;20419;-75
2022/10/28 08:15:31;;;;;;;6.10;2.67;;;;;;;17.30;86.91;101212.72;5047716;28;20045;-79
2022/10/28 08:18:18;;;;;;;8.52;3.20;;;;;;;17.47;85.49;101204.28;5054115;28;20037;-78
2022/10/28 08:21:08;;;;;;;6.32;3.25;;;;;;;17.60;85.07;101213.63;5047308;28;20052;-77
2022/10/28 08:23:55;;;;;;;8.13;3.08;;;;;;;17.72;84.10;101206.22;5048444;28;20063;-77
2022/10/28 08:26:42;;;;;;;9.38;3.08;;;;;;;17.84;83.54;101205.88;5055780;28;20567;-77
2022/10/28 08:29:28;;;;;;;6.43;2.50;;;;;;;17.94;83.01;101202.06;5054050;28;20037;-77
2022/10/28 08:32:15;;;;;;;9.95;3.30;;;;;;;18.04;82.45;101210.56;5058907;28;20040;-77
2022/10/28 08:35:02;;;;;;;16.67;4.68;;;;;;;18.11;81.98;101213.91;5049870;28;20059;-77
2022/10/28 08:37:52;;;;;;;5.57;2.95;;;;;;;18.14;81.82;101219.97;5058577;28;20048;-77
2022/10/28 08:41:16;;;;;;;3.40;2.58;;;;;;;18.14;80.91;101216.47;5043641;28;20045;-77
2022/10/28 08:44:41;;;;;;;13.25;2.78;;;;;;;18.09;81.29;101213.94;5050560;28;20100;-80
2022/10/28 08:47:58;;;;;;;5.22;2.67;;;;;;;18.02;81.62;101223.88;5054310;28;20041;-78
2022/10/28 08:50:53;;;;;;;5.97;2.95;;;;;;;18.00;81.32;101225.72;5045988;28;20098;-77
2022/10/28 08:53:54;;;;;;;10.45;3.55;;;;;;;17.89;81.80;101225.13;5049389;28;20705;-79
2022/10/28 08:56:44;;;;;;;5.55;3.08;;;;;;;17.82;82.65;101232.41;5049056;28;20044;-77
2022/10/28 08:59:37;;;;;;;8.80;2.95;;;;;;;17.77;83.28;101236.06;5047608;28;20120;-78
2022/10/28 09:02:26;;;;;;;3.72;2.78;;;;;;;17.75;83.69;101225.53;5050507;28;20053;-80
2022/10/28 09:05:25;;;;;;;9.38;3.03;;;;;;;17.77;82.74;101217.53;5047441;28;20603;-77
2022/10/28 09:08:27;;;;;;;10.23;3.88;;;;;;;17.94;82.05;101220.59;5039091;28;20037;-77
2022/10/28 09:11:52;;;;;;;7.82;3.08;;;;;;;18.06;81.15;101219.34;5044465;28;20110;-79
2022/10/28 09:15:29;;;;;;;7.93;3.30;;;;;;;18.19;80.44;101212.72;5042592;28;20044;-80
2022/10/28 09:18:35;;;;;;;6.88;2.72;;;;;;;18.33;79.20;101216.75;5053555;28;20176;-79
2022/10/28 09:21:48;;;;;;;5.47;2.92;;;;;;;18.42;79.12;101207.59;5055130;28;20052;-78
2022/10/28 09:24:50;;;;;;;6.22;2.47;;;;;;;18.46;78.64;101220.72;5045570;28;20564;-80
2022/10/28 09:28:10;;;;;;;6.60;2.97;;;;;;;18.49;78.91;101215.31;5043003;28;20043;-77
2022/10/28 09:31:39;;;;;;;5.45;2.65;;;;;;;18.55;78.37;101213.38;5042778;28;20592;-80
2022/10/28 09:34:47;;;;;;;5.88;3.05;;;;;;;18.60;78.43;101214.94;5053192;28;20052;-76
2022/10/28 09:37:40;;;;;;;8.43;2.63;;;;;;;18.64;78.66;101223.66;5052538;28;20094;-77
2022/10/28 09:40:33;;;;;;;7.28;3.08;;;;;;;18.63;78.64;101212.19;5057099;28;20040;-79
2022/10/28 09:43:33;;;;;;;9.20;3.10;;;;;;;18.72;77.72;101203.06;5054580;28;20106;-79
2022/10/28 09:46:22;;;;;;;4.65;2.30;;;;;;;18.80;78.25;101208.97;5047891;28;20120;-80
2022/10/28 09:49:19;;;;;;;11.77;2.70;;;;;;;18.99;76.69;101205.72;5038588;28;20664;-80
2022/10/28 09:52:09;;;;;;;10.93;3.15;;;;;;;19.18;74.16;101196.16;5046611;28;20128;-77
2022/10/28 09:54:58;;;;;;;10.15;2.60;;;;;;;19.48;72.21;101208.38;5054824;28;20183;-76
2022/10/28 09:57:45;;;;;;;8.80;3.50;;;;;;;19.64;71.58;101206.84;5050332;28;20037;-77
2022/10/28 10:00:32;;;;;;;8.60;3.28;;;;;;;19.79;70.55;101201.88;5049052;28;20045;-78
2022/10/28 10:03:19;;;;;;;10.10;2.65;;;;;;;20.03;68.58;101205.41;5044773;28;20051;-77
2022/10/28 10:06:19;;;;;;;9.80;3.33;;;;;;;20.25;66.85;101193.91;5056704;28;20080;-77
2022/10/28 10:09:28;;;;;;;7.32;2.50;;;;;;;20.40;66.16;101201.25;5047041;28;20072;-76
2022/10/28 10:12:16;;;;;;;6.00;2.38;;;;;;;20.41;66.82;101196.81;5043897;28;20040;-79
2022/10/28 10:15:07;;;;;;;4.07;2.42;;;;;;;20.49;66.39;101197.34;5051157;28;20048;-79
2022/10/28 10:17:57;;;;;;;9.93;2.85;;;;;;;20.51;65.69;101187.50;5034779;28;20112;-80
2022/10/28 10:20:54;;;;;;;3.10;2.25;;;;;;;20.55;65.97;101194.44;5047946;28;20041;-79
2022/10/28 10:23:41;;;;;;;10.68;3.33;;;;;;;20.62;65.55;101189.72;5042998;28;20048;-78
2022/10/28 10:26:33;;;;;;;13.25;2.60;;;;;;;20.61;65.96;101188.84;5038714;28;20619;-78
2022/10/28 10:29:21;;;;;;;3.90;2.60;;;;;;;20.61;65.96;101186.19;5043532;28;20515;-77
2022/10/28 10:32:16;;;;;;;8.35;2.80;;;;;;;20.65;65.88;101186.94;5045813;28;20547;-79
2022/10/28 10:35:37;;;;;;;10.48;3.50;;;;;;;20.72;65.23;101188.41;5037250;28;20050;-80
2022/10/28 10:38:26;;;;;;;7.28;3.22;;;;;;;20.82;64.97;101183.56;5045385;28;20049;-77
2022/10/28 10:41:32;;;;;;;7.65;2.47;;;;;;;20.96;64.51;101188.28;5038480;28;20049;-79
2022/10/28 10:44:22;;;;;;;9.70;2.45;;;;;;;21.08;63.71;101195.72;5031252;28;20675;-78
2022/10/28 10:47:12;;;;;;;5.20;2.83;;;;;;;21.17;62.91;101198.91;5051253;28;20051;-80
2022/10/28 10:50:37;;;;;;;7.15;3.13;;;;;;;21.21;62.56;101196.06;5048018;28;20033;-78
2022/10/28 10:53:27;;;;;;;7.45;2.95;;;;;;;21.23;63.18;101195.97;5047922;28;20313;-79
2022/10/28 10:56:32;;;;;;;7.75;2.78;;;;;;;21.18;62.63;101190.84;5054687;28;20072;-78
2022/10/28 10:59:28;;;;;;;5.03;2.65;;;;;;;21.26;62.33;101196.72;5052441;28;20040;-80
2022/10/28 11:02:28;;;;;;;8.90;3.33;;;;;;;21.33;61.54;101191.97;5043944;28;20040;-78
2022/10/28 11:05:23;;;;;;;13.18;3.13;;;;;;;21.35;61.18;101181.25;5042827;28;20658;-77
2022/10/28 11:08:32;;;;;;;6.55;2.55;;;;;;;21.34;61.58;101188.38;5045229;28;20052;-82
2022/10/28 11:11:22;;;;;;;6.88;2.65;;;;;;;21.42;61.33;101185.34;5033490;28;20040;-78
2022/10/28 11:14:09;;;;;;;6.40;2.50;;;;;;;21.41;61.45;101165.84;5054498;28;20049;-79
2022/10/28 11:17:02;;;;;;;4.47;2.25;;;;;;;21.51;60.99;101170.72;5057724;28;20044;-77
2022/10/28 11:19:54;;;;;;;6.40;3.08;;;;;;;21.57;60.95;101162.50;5041857;28;20097;-77
2022/10/28 11:23:23;;;;;;;9.18;3.33;;;;;;;21.64;61.12;101151.47;5058943;28;20048;-77
2022/10/28 11:26:15;;;;;;;10.18;3.10;;;;;;;21.81;60.55;101147.13;5048774;28;20131;-78
2022/10/28 11:29:15;;;;;;;9.23;2.55;;;;;;;21.91;60.54;101150.22;5047449;28;20048;-80
2022/10/28 11:32:29;;;;;;;6.53;2.72;;;;;;;22.07;59.06;101143.22;5055638;28;20076;-78
2022/10/28 11:35:15;;;;;;;4.55;2.22;;;;;;;22.14;59.04;101141.09;5045836;28;20684;-78
2022/10/28 11:38:47;;;;;;;9.30;2.97;;;;;;;22.14;58.88;101149.94;5057889;28;20044;-78
2022/10/28 11:41:55;;;;;;;8.18;3.20;;;;;;;22.20;59.03;101158.56;5049562;28;20048;-80
2022/10/28 11:44:44;;;;;;;8.30;2.88;;;;;;;22.31;59.15;101146.44;5053567;28;20049;-81
2022/10/28 11:48:05;;;;;;;9.43;2.50;;;;;;;22.52;57.65;101145.47;5044814;28;20692;-79
2022/10/28 11:51:06;;;;;;;8.07;2.85;;;;;;;22.63;58.12;101140.41;5058778;28;20040;-79
2022/10/28 11:54:19;;;;;;;7.30;2.20;;;;;;;22.71;58.03;101148.91;5042793;28;20068;-78
2022/10/28 11:57:15;;;;;;;7.07;3.25;;;;;;;22.83;57.66;101147.41;5041272;28;20088;-79
2022/10/28 12:00:40;;;;;;;6.45;2.50;;;;;;;22.96;56.88;101143.13;5043539;28;20033;-79
2022/10/28 12:04:02;;;;;;;8.68;3.50;;;;;;;23.08;54.78;101140.75;5056281;28;20047;-80
2022/10/28 12:07:29;;;;;;;10.23;2.67;;;;;;;23.08;56.31;101138.09;5042983;28;20047;-76
2022/10/28 12:11:18;;;;;;;4.97;2.35;;;;;;;23.21;55.29;101125.81;5051902;28;20044;-77
2022/10/28 12:14:21;;;;;;;4.93;2.20;;;;;;;23.27;55.98;101128.16;5056372;28;20044;-78
2022/10/28 12:17:48;;;;;;;8.15;2.42;;;;;;;23.44;54.14;101121.00;5061566;28;20151;-76
2022/10/28 12:21:08;;;;;;;10.18;2.22;;;;;;;23.45;54.77;101112.91;5034512;28;20037;-78
2022/10/28 12:23:58;;;;;;;10.88;3.67;;;;;;;23.46;54.36;101117.28;5063416;28;20060;-76
2022/10/28 12:26:50;;;;;;;5.75;2.40;;;;;;;23.38;54.89;101119.53;5058617;28;20045;-77
2022/10/28 12:29:43;;;;;;;7.10;3.10;;;;;;;23.31;54.30;101120.84;5068179;28;20047;-77
2022/10/28 12:32:34;;;;;;;9.13;2.83;;;;;;;23.22;54.93;101121.31;5049625;28;20576;-77
2022/10/28 12:35:29;;;;;;;7.55;3.35;;;;;;;23.16;55.15;101135.88;5061427;28;20049;-77
2022/10/28 12:38:31;;;;;;;5.22;2.53;;;;;;;23.07;55.54;101129.19;5047946;28;20049;-77
2022/10/28 12:41:30;;;;;;;8.70;2.92;;;;;;;23.05;56.26;101122.22;5042479;28;20056;-77
2022/10/28 12:44:21;;;;;;;8.95;2.95;;;;;;;23.08;56.40;101119.38;5041387;28;20051;-79
2022/10/28 12:47:45;;;;;;;7.93;3.22;;;;;;;23.12;55.77;101118.28;5039173;28;20049;-76
2022/10/28 12:51:16;;;;;;;3.92;1.88;;;;;;;23.17;55.79;101118.91;5044557;28;20053;-80
2022/10/28 12:54:27;;;;;;;8.88;4.00;;;;;;;23.21;56.00;101114.28;5018719;28;20041;-78
2022/10/28 12:57:20;;;;;;;6.45;2.58;;;;;;;23.21;56.29;101112.47;5043248;28;20037;-78
2022/10/28 13:00:29;;;;;;;7.22;2.95;;;;;;;23.15;55.69;101098.59;5046260;28;20041;-80
2022/10/28 13:03:17;;;;;;;9.68;2.75;;;;;;;23.17;56.06;101105.56;5047016;28;20561;-78
2022/10/28 13:06:29;;;;;;;5.38;2.28;;;;;;;23.14;55.82;101105.75;5036092;28;20049;-80
2022/10/28 13:09:47;;;;;;;6.38;2.75;;;;;;;23.15;55.01;101110.13;5048195;28;20056;-82
2022/10/28 13:13:10;;;;;;;7.82;2.85;;;;;;;23.15;55.59;101101.25;5052253;28;20119;-78
2022/10/28 13:16:10;;;;;;;7.93;3.45;;;;;;;23.15;56.21;101104.78;5048705;28;20155;-76
2022/10/28 13:19:22;;;;;;;5.93;2.42;;;;;;;23.11;56.18;101105.84;5045424;28;20044;-79
2022/10/28 13:23:00;;;;;;;12.18;2.55;;;;;;;23.07;56.14;101102.47;5056883;28;20455;-77
2022/10/28 13:26:16;;;;;;;9.00;2.70;;;;;;;22.99;56.07;101101.19;5058732;28;20128;-77